Aviation Digital Data Service (ADDS)

Output produced by METARs form (1911 UTC 25 June 2017)
found at http://www.aviationweather.gov/adds/metars/
 
LQBK 251900Z 32014KT 9999 FEW025 FEW027TCU SCT045 24/20 Q1012 NOSIG
TAF LQBK 251700Z 2518/2618 30005KT 9999 SCT040 TX29/2614Z TN18/2604Z 
     TEMPO 2518/2606 34015KT 3000 TSRA SCT017 FEW030CB BKN040
       
LQMO 251900Z VRB02KT CAVOK 30/14 Q1009
TAF COR LQMO 251705Z 2518/2618 VRB02KT CAVOK TX33/2518Z TN20/2603Z 
     PROB40 
     TEMPO 2605/2614 33015KT TSRA FEW040CB BKN050
       
LQSA 251900Z 16003KT 110V280 CAVOK 23/17 Q1012 NOSIG
TAF LQSA 251700Z 2518/2618 15005KT CAVOK TX27/2518Z TN13/2606Z 
     PROB40 
     TEMPO 2603/2615 VRB12KT 4000 TSRA FEW010 SCT035CB BKN045
       
LQTZ 251900Z 32005KT CAVOK 25/19 Q1010
TAF LQTZ 251700Z 2518/2618 11005KT CAVOK TX28/2518Z TN20/2603Z 
     PROB30 
     TEMPO 2518/2521 21015G25KT TSRA FEW040CB SCT045 
     TEMPO 2602/2609 30015KT 3000 TSRA SCT017 FEW033CB BKN040